sensor_id;sensor_type;location;lat;lon;timestamp;P1;durP1;ratioP1;P2;durP2;ratioP2
735;SDS011;352;48.626;9.238;2022-10-16T00:00:05;2.90;;;2.30;;
735;SDS011;352;48.626;9.238;2022-10-16T00:02:33;5.40;;;3.63;;
735;SDS011;352;48.626;9.238;2022-10-16T00:05:00;5.27;;;3.20;;
735;SDS011;352;48.626;9.238;2022-10-16T00:07:27;3.40;;;3.10;;
735;SDS011;352;48.626;9.238;2022-10-16T00:09:53;4.97;;;3.00;;
735;SDS011;352;48.626;9.238;2022-10-16T00:12:20;3.47;;;2.20;;
735;SDS011;352;48.626;9.238;2022-10-16T00:14:47;5.67;;;4.00;;
735;SDS011;352;48.626;9.238;2022-10-16T00:17:15;3.70;;;2.90;;
735;SDS011;352;48.626;9.238;2022-10-16T00:19:41;6.23;;;2.73;;
735;SDS011;352;48.626;9.238;2022-10-16T00:22:08;3.60;;;2.73;;
735;SDS011;352;48.626;9.238;2022-10-16T00:24:36;4.53;;;2.33;;
735;SDS011;352;48.626;9.238;2022-10-16T00:27:02;5.50;;;3.60;;
735;SDS011;352;48.626;9.238;2022-10-16T00:29:29;4.70;;;2.37;;
735;SDS011;352;48.626;9.238;2022-10-16T00:31:56;2.10;;;2.00;;
735;SDS011;352;48.626;9.238;2022-10-16T00:34:24;5.47;;;2.30;;
735;SDS011;352;48.626;9.238;2022-10-16T00:36:50;4.50;;;2.37;;
735;SDS011;352;48.626;9.238;2022-10-16T00:39:17;2.60;;;2.40;;
735;SDS011;352;48.626;9.238;2022-10-16T00:41:44;3.07;;;2.70;;
735;SDS011;352;48.626;9.238;2022-10-16T00:47:10;4.70;;;1.90;;
735;SDS011;352;48.626;9.238;2022-10-16T00:49:41;4.10;;;2.20;;
735;SDS011;352;48.626;9.238;2022-10-16T00:52:07;2.70;;;2.10;;
735;SDS011;352;48.626;9.238;2022-10-16T00:54:36;4.87;;;2.80;;
735;SDS011;352;48.626;9.238;2022-10-16T00:57:03;4.57;;;2.10;;
735;SDS011;352;48.626;9.238;2022-10-16T00:59:32;2.27;;;2.07;;
735;SDS011;352;48.626;9.238;2022-10-16T01:02:01;7.33;;;2.50;;
735;SDS011;352;48.626;9.238;2022-10-16T01:04:30;2.43;;;2.23;;
735;SDS011;352;48.626;9.238;2022-10-16T01:07:03;3.83;;;2.40;;
735;SDS011;352;48.626;9.238;2022-10-16T01:09:37;2.50;;;2.30;;
735;SDS011;352;48.626;9.238;2022-10-16T01:12:14;3.20;;;2.43;;
735;SDS011;352;48.626;9.238;2022-10-16T01:14:45;4.17;;;2.50;;
735;SDS011;352;48.626;9.238;2022-10-16T01:17:15;6.20;;;2.27;;
735;SDS011;352;48.626;9.238;2022-10-16T01:19:50;3.10;;;2.20;;
735;SDS011;352;48.626;9.238;2022-10-16T01:22:38;4.00;;;2.67;;
735;SDS011;352;48.626;9.238;2022-10-16T01:25:11;4.93;;;2.57;;
735;SDS011;352;48.626;9.238;2022-10-16T01:27:46;2.87;;;2.57;;
735;SDS011;352;48.626;9.238;2022-10-16T01:30:15;2.13;;;1.93;;
735;SDS011;352;48.626;9.238;2022-10-16T01:32:48;3.43;;;2.40;;
735;SDS011;352;48.626;9.238;2022-10-16T01:35:20;2.83;;;2.20;;
735;SDS011;352;48.626;9.238;2022-10-16T01:37:51;4.93;;;1.90;;
735;SDS011;352;48.626;9.238;2022-10-16T01:40:23;2.37;;;1.80;;
735;SDS011;352;48.626;9.238;2022-10-16T01:42:55;2.17;;;1.97;;
735;SDS011;352;48.626;9.238;2022-10-16T01:45:25;2.87;;;2.10;;
735;SDS011;352;48.626;9.238;2022-10-16T01:47:54;2.73;;;1.90;;
735;SDS011;352;48.626;9.238;2022-10-16T01:50:22;3.37;;;2.23;;
735;SDS011;352;48.626;9.238;2022-10-16T01:52:51;5.17;;;2.30;;
735;SDS011;352;48.626;9.238;2022-10-16T01:55:20;4.07;;;1.97;;
735;SDS011;352;48.626;9.238;2022-10-16T01:57:54;6.97;;;2.33;;
735;SDS011;352;48.626;9.238;2022-10-16T02:00:22;3.90;;;2.10;;
735;SDS011;352;48.626;9.238;2022-10-16T02:02:49;7.40;;;2.30;;
735;SDS011;352;48.626;9.238;2022-10-16T02:05:20;2.13;;;1.93;;
735;SDS011;352;48.626;9.238;2022-10-16T02:07:52;4.43;;;1.90;;
735;SDS011;352;48.626;9.238;2022-10-16T02:10:19;4.70;;;1.83;;
735;SDS011;352;48.626;9.238;2022-10-16T02:12:48;6.17;;;1.90;;
735;SDS011;352;48.626;9.238;2022-10-16T02:15:21;8.03;;;1.80;;
735;SDS011;352;48.626;9.238;2022-10-16T02:17:47;5.60;;;2.03;;
735;SDS011;352;48.626;9.238;2022-10-16T02:20:14;3.70;;;1.80;;
735;SDS011;352;48.626;9.238;2022-10-16T02:22:42;4.03;;;2.13;;
735;SDS011;352;48.626;9.238;2022-10-16T02:25:13;2.63;;;1.83;;
735;SDS011;352;48.626;9.238;2022-10-16T02:27:45;2.70;;;1.77;;
735;SDS011;352;48.626;9.238;2022-10-16T02:30:19;3.00;;;1.83;;
735;SDS011;352;48.626;9.238;2022-10-16T02:32:51;2.83;;;1.90;;
735;SDS011;352;48.626;9.238;2022-10-16T02:35:20;4.37;;;1.70;;
735;SDS011;352;48.626;9.238;2022-10-16T02:37:49;2.43;;;1.63;;
735;SDS011;352;48.626;9.238;2022-10-16T02:40:17;8.03;;;1.93;;
735;SDS011;352;48.626;9.238;2022-10-16T02:42:44;7.60;;;1.97;;
735;SDS011;352;48.626;9.238;2022-10-16T02:45:11;5.30;;;1.87;;
735;SDS011;352;48.626;9.238;2022-10-16T02:47:39;3.50;;;1.87;;
735;SDS011;352;48.626;9.238;2022-10-16T02:50:06;4.07;;;2.00;;
735;SDS011;352;48.626;9.238;2022-10-16T02:52:33;8.00;;;2.27;;
735;SDS011;352;48.626;9.238;2022-10-16T02:55:00;5.67;;;2.57;;
735;SDS011;352;48.626;9.238;2022-10-16T02:57:27;4.20;;;2.13;;
735;SDS011;352;48.626;9.238;2022-10-16T02:59:53;3.83;;;2.10;;
735;SDS011;352;48.626;9.238;2022-10-16T03:02:20;4.00;;;1.93;;
735;SDS011;352;48.626;9.238;2022-10-16T03:04:48;2.30;;;2.07;;
735;SDS011;352;48.626;9.238;2022-10-16T03:07:15;2.20;;;2.00;;
735;SDS011;352;48.626;9.238;2022-10-16T03:09:42;5.30;;;3.43;;
735;SDS011;352;48.626;9.238;2022-10-16T03:12:09;6.80;;;4.63;;
735;SDS011;352;48.626;9.238;2022-10-16T03:14:36;9.70;;;3.90;;
735;SDS011;352;48.626;9.238;2022-10-16T03:17:04;6.30;;;3.50;;
735;SDS011;352;48.626;9.238;2022-10-16T03:19:33;4.87;;;2.93;;
735;SDS011;352;48.626;9.238;2022-10-16T03:22:02;7.83;;;2.13;;
735;SDS011;352;48.626;9.238;2022-10-16T03:24:28;3.63;;;2.80;;
735;SDS011;352;48.626;9.238;2022-10-16T03:26:55;3.07;;;1.90;;
735;SDS011;352;48.626;9.238;2022-10-16T03:29:22;2.13;;;1.80;;
735;SDS011;352;48.626;9.238;2022-10-16T03:31:50;5.60;;;1.70;;
735;SDS011;352;48.626;9.238;2022-10-16T03:34:17;8.00;;;2.90;;
735;SDS011;352;48.626;9.238;2022-10-16T03:36:44;5.17;;;2.30;;
735;SDS011;352;48.626;9.238;2022-10-16T03:39:12;4.10;;;1.70;;
735;SDS011;352;48.626;9.238;2022-10-16T03:41:39;3.70;;;1.77;;
735;SDS011;352;48.626;9.238;2022-10-16T03:44:06;3.03;;;1.70;;
735;SDS011;352;48.626;9.238;2022-10-16T03:46:32;6.27;;;2.07;;
735;SDS011;352;48.626;9.238;2022-10-16T03:48:59;4.67;;;1.80;;
735;SDS011;352;48.626;9.238;2022-10-16T03:51:26;3.67;;;1.97;;
735;SDS011;352;48.626;9.238;2022-10-16T03:53:53;2.53;;;1.90;;
735;SDS011;352;48.626;9.238;2022-10-16T03:56:21;3.40;;;1.60;;
735;SDS011;352;48.626;9.238;2022-10-16T03:58:47;6.60;;;1.90;;
735;SDS011;352;48.626;9.238;2022-10-16T04:01:14;3.83;;;2.10;;
735;SDS011;352;48.626;9.238;2022-10-16T04:03:41;5.33;;;2.23;;
735;SDS011;352;48.626;9.238;2022-10-16T04:06:08;8.70;;;1.90;;
735;SDS011;352;48.626;9.238;2022-10-16T04:08:34;3.47;;;1.87;;
735;SDS011;352;48.626;9.238;2022-10-16T04:11:01;2.43;;;2.23;;
735;SDS011;352;48.626;9.238;2022-10-16T04:13:30;7.57;;;3.27;;
735;SDS011;352;48.626;9.238;2022-10-16T04:15:56;4.57;;;2.57;;
735;SDS011;352;48.626;9.238;2022-10-16T04:18:23;3.60;;;1.80;;
735;SDS011;352;48.626;9.238;2022-10-16T04:20:52;3.97;;;1.90;;
735;SDS011;352;48.626;9.238;2022-10-16T04:23:18;3.97;;;1.57;;
735;SDS011;352;48.626;9.238;2022-10-16T04:25:45;1.83;;;1.73;;
735;SDS011;352;48.626;9.238;2022-10-16T04:28:12;3.97;;;1.80;;
735;SDS011;352;48.626;9.238;2022-10-16T04:30:40;5.23;;;2.37;;
735;SDS011;352;48.626;9.238;2022-10-16T04:33:08;4.70;;;2.13;;
735;SDS011;352;48.626;9.238;2022-10-16T04:35:35;2.80;;;1.80;;
735;SDS011;352;48.626;9.238;2022-10-16T04:38:02;2.47;;;1.70;;
735;SDS011;352;48.626;9.238;2022-10-16T04:40:29;4.07;;;1.60;;
735;SDS011;352;48.626;9.238;2022-10-16T04:42:57;2.37;;;1.63;;
735;SDS011;352;48.626;9.238;2022-10-16T04:45:25;2.53;;;1.40;;
735;SDS011;352;48.626;9.238;2022-10-16T04:47:56;1.70;;;1.60;;
735;SDS011;352;48.626;9.238;2022-10-16T04:50:23;7.10;;;3.90;;
735;SDS011;352;48.626;9.238;2022-10-16T04:52:52;8.47;;;3.60;;
735;SDS011;352;48.626;9.238;2022-10-16T04:55:19;10.70;;;4.70;;
735;SDS011;352;48.626;9.238;2022-10-16T04:57:46;9.10;;;4.03;;
735;SDS011;352;48.626;9.238;2022-10-16T05:00:13;4.90;;;2.07;;
735;SDS011;352;48.626;9.238;2022-10-16T05:02:40;7.60;;;2.63;;
735;SDS011;352;48.626;9.238;2022-10-16T05:05:08;5.93;;;2.30;;
735;SDS011;352;48.626;9.238;2022-10-16T05:07:35;11.83;;;2.10;;
735;SDS011;352;48.626;9.238;2022-10-16T05:10:02;2.43;;;2.23;;
735;SDS011;352;48.626;9.238;2022-10-16T05:12:29;1.67;;;1.57;;
735;SDS011;352;48.626;9.238;2022-10-16T05:14:55;6.03;;;1.77;;
735;SDS011;352;48.626;9.238;2022-10-16T05:17:23;2.23;;;1.67;;
735;SDS011;352;48.626;9.238;2022-10-16T05:19:50;3.33;;;1.93;;
735;SDS011;352;48.626;9.238;2022-10-16T05:22:19;3.20;;;2.13;;
735;SDS011;352;48.626;9.238;2022-10-16T05:24:52;6.60;;;2.00;;
735;SDS011;352;48.626;9.238;2022-10-16T05:27:18;3.00;;;1.80;;
735;SDS011;352;48.626;9.238;2022-10-16T05:29:45;3.40;;;2.00;;
735;SDS011;352;48.626;9.238;2022-10-16T05:32:13;4.43;;;3.20;;
735;SDS011;352;48.626;9.238;2022-10-16T05:34:40;5.23;;;2.00;;
735;SDS011;352;48.626;9.238;2022-10-16T05:37:11;3.47;;;2.00;;
735;SDS011;352;48.626;9.238;2022-10-16T05:42:44;3.30;;;1.60;;
735;SDS011;352;48.626;9.238;2022-10-16T05:45:11;4.93;;;2.20;;
735;SDS011;352;48.626;9.238;2022-10-16T05:47:40;5.50;;;2.07;;
735;SDS011;352;48.626;9.238;2022-10-16T05:50:07;7.50;;;3.40;;
735;SDS011;352;48.626;9.238;2022-10-16T05:52:38;5.17;;;2.70;;
735;SDS011;352;48.626;9.238;2022-10-16T05:55:06;7.23;;;2.60;;
735;SDS011;352;48.626;9.238;2022-10-16T05:57:40;4.73;;;2.40;;
735;SDS011;352;48.626;9.238;2022-10-16T06:00:08;3.50;;;3.10;;
735;SDS011;352;48.626;9.238;2022-10-16T06:02:37;8.73;;;2.40;;
735;SDS011;352;48.626;9.238;2022-10-16T06:05:11;6.40;;;2.03;;
735;SDS011;352;48.626;9.238;2022-10-16T06:08:54;6.70;;;2.10;;
735;SDS011;352;48.626;9.238;2022-10-16T06:12:04;6.53;;;1.93;;
735;SDS011;352;48.626;9.238;2022-10-16T06:25:49;7.03;;;2.37;;
735;SDS011;352;48.626;9.238;2022-10-16T06:28:55;3.87;;;2.10;;
735;SDS011;352;48.626;9.238;2022-10-16T06:42:02;3.50;;;2.70;;
735;SDS011;352;48.626;9.238;2022-10-16T06:52:08;5.67;;;2.60;;
735;SDS011;352;48.626;9.238;2022-10-16T06:58:34;5.00;;;2.50;;
735;SDS011;352;48.626;9.238;2022-10-16T07:01:18;5.00;;;2.20;;
735;SDS011;352;48.626;9.238;2022-10-16T07:03:46;3.63;;;2.47;;
735;SDS011;352;48.626;9.238;2022-10-16T07:06:14;11.40;;;3.00;;
735;SDS011;352;48.626;9.238;2022-10-16T07:08:43;8.10;;;2.30;;
735;SDS011;352;48.626;9.238;2022-10-16T07:11:11;5.17;;;2.00;;
735;SDS011;352;48.626;9.238;2022-10-16T07:13:42;6.33;;;2.60;;
735;SDS011;352;48.626;9.238;2022-10-16T07:19:32;4.80;;;2.93;;
735;SDS011;352;48.626;9.238;2022-10-16T07:24:35;3.97;;;2.47;;
735;SDS011;352;48.626;9.238;2022-10-16T07:27:05;5.93;;;2.63;;
735;SDS011;352;48.626;9.238;2022-10-16T07:29:50;3.57;;;2.10;;
735;SDS011;352;48.626;9.238;2022-10-16T07:32:16;5.07;;;2.53;;
735;SDS011;352;48.626;9.238;2022-10-16T07:34:44;4.27;;;1.87;;
735;SDS011;352;48.626;9.238;2022-10-16T07:37:11;3.07;;;1.80;;
735;SDS011;352;48.626;9.238;2022-10-16T07:39:38;8.20;;;4.07;;
735;SDS011;352;48.626;9.238;2022-10-16T07:42:05;5.57;;;4.97;;
735;SDS011;352;48.626;9.238;2022-10-16T07:44:33;3.93;;;2.27;;
735;SDS011;352;48.626;9.238;2022-10-16T07:47:01;4.97;;;2.60;;
735;SDS011;352;48.626;9.238;2022-10-16T07:49:28;3.30;;;2.30;;
735;SDS011;352;48.626;9.238;2022-10-16T07:51:55;4.27;;;2.23;;
735;SDS011;352;48.626;9.238;2022-10-16T07:54:22;5.10;;;2.70;;
735;SDS011;352;48.626;9.238;2022-10-16T07:56:49;5.47;;;2.70;;
735;SDS011;352;48.626;9.238;2022-10-16T07:59:15;4.07;;;2.20;;
735;SDS011;352;48.626;9.238;2022-10-16T08:01:42;6.50;;;2.60;;
735;SDS011;352;48.626;9.238;2022-10-16T08:04:10;10.27;;;2.50;;
735;SDS011;352;48.626;9.238;2022-10-16T08:06:37;6.47;;;2.30;;
735;SDS011;352;48.626;9.238;2022-10-16T08:09:06;6.50;;;2.70;;
735;SDS011;352;48.626;9.238;2022-10-16T08:11:33;3.80;;;2.73;;
735;SDS011;352;48.626;9.238;2022-10-16T08:14:00;3.70;;;2.80;;
735;SDS011;352;48.626;9.238;2022-10-16T08:16:27;6.67;;;3.10;;
735;SDS011;352;48.626;9.238;2022-10-16T08:18:53;8.73;;;3.17;;
735;SDS011;352;48.626;9.238;2022-10-16T08:21:22;4.73;;;3.43;;
735;SDS011;352;48.626;9.238;2022-10-16T08:23:49;5.50;;;3.70;;
735;SDS011;352;48.626;9.238;2022-10-16T08:26:16;13.30;;;2.70;;
735;SDS011;352;48.626;9.238;2022-10-16T08:28:44;5.43;;;2.73;;
735;SDS011;352;48.626;9.238;2022-10-16T08:31:11;4.83;;;2.40;;
735;SDS011;352;48.626;9.238;2022-10-16T08:33:39;4.10;;;2.07;;
735;SDS011;352;48.626;9.238;2022-10-16T08:36:09;3.00;;;2.10;;
735;SDS011;352;48.626;9.238;2022-10-16T08:38:38;5.13;;;2.50;;
735;SDS011;352;48.626;9.238;2022-10-16T08:41:13;3.27;;;2.10;;
735;SDS011;352;48.626;9.238;2022-10-16T08:44:04;5.43;;;2.97;;
735;SDS011;352;48.626;9.238;2022-10-16T08:46:46;6.53;;;3.50;;
735;SDS011;352;48.626;9.238;2022-10-16T08:49:21;7.87;;;3.37;;
735;SDS011;352;48.626;9.238;2022-10-16T08:51:49;6.23;;;3.93;;
735;SDS011;352;48.626;9.238;2022-10-16T08:54:23;6.30;;;3.93;;
735;SDS011;352;48.626;9.238;2022-10-16T08:56:55;5.10;;;2.60;;
735;SDS011;352;48.626;9.238;2022-10-16T08:59:22;7.90;;;4.53;;
735;SDS011;352;48.626;9.238;2022-10-16T09:01:50;5.20;;;3.87;;
735;SDS011;352;48.626;9.238;2022-10-16T09:07:15;3.77;;;3.00;;
735;SDS011;352;48.626;9.238;2022-10-16T09:09:52;3.77;;;3.47;;
735;SDS011;352;48.626;9.238;2022-10-16T09:12:28;6.70;;;3.00;;
735;SDS011;352;48.626;9.238;2022-10-16T09:15:07;5.77;;;2.87;;
735;SDS011;352;48.626;9.238;2022-10-16T09:17:45;2.27;;;1.90;;
735;SDS011;352;48.626;9.238;2022-10-16T09:20:27;3.77;;;2.13;;
735;SDS011;352;48.626;9.238;2022-10-16T09:23:06;3.73;;;1.80;;
735;SDS011;352;48.626;9.238;2022-10-16T09:25:39;4.30;;;2.53;;
735;SDS011;352;48.626;9.238;2022-10-16T09:28:09;5.33;;;2.40;;
735;SDS011;352;48.626;9.238;2022-10-16T09:30:36;3.00;;;2.53;;
735;SDS011;352;48.626;9.238;2022-10-16T09:33:04;2.00;;;1.80;;
735;SDS011;352;48.626;9.238;2022-10-16T09:35:33;8.93;;;2.17;;
735;SDS011;352;48.626;9.238;2022-10-16T09:38:03;2.50;;;2.10;;
735;SDS011;352;48.626;9.238;2022-10-16T09:40:31;4.87;;;2.10;;
735;SDS011;352;48.626;9.238;2022-10-16T09:43:03;2.73;;;2.23;;
735;SDS011;352;48.626;9.238;2022-10-16T09:45:42;3.67;;;1.60;;
735;SDS011;352;48.626;9.238;2022-10-16T09:48:19;2.60;;;2.07;;
735;SDS011;352;48.626;9.238;2022-10-16T09:50:54;1.90;;;1.60;;
735;SDS011;352;48.626;9.238;2022-10-16T09:53:22;1.90;;;1.80;;
735;SDS011;352;48.626;9.238;2022-10-16T09:55:49;2.13;;;1.77;;
735;SDS011;352;48.626;9.238;2022-10-16T09:58:17;2.17;;;1.97;;
735;SDS011;352;48.626;9.238;2022-10-16T10:00:48;3.00;;;2.10;;
735;SDS011;352;48.626;9.238;2022-10-16T10:03:23;2.10;;;1.90;;
735;SDS011;352;48.626;9.238;2022-10-16T10:06:03;2.00;;;1.83;;
735;SDS011;352;48.626;9.238;2022-10-16T10:08:33;2.30;;;1.80;;
735;SDS011;352;48.626;9.238;2022-10-16T10:11:00;2.40;;;1.90;;
735;SDS011;352;48.626;9.238;2022-10-16T10:13:28;2.87;;;2.10;;
735;SDS011;352;48.626;9.238;2022-10-16T10:15:55;3.50;;;1.80;;
735;SDS011;352;48.626;9.238;2022-10-16T10:18:22;2.00;;;1.73;;
735;SDS011;352;48.626;9.238;2022-10-16T10:20:56;3.10;;;1.90;;
735;SDS011;352;48.626;9.238;2022-10-16T10:23:24;1.70;;;1.60;;
735;SDS011;352;48.626;9.238;2022-10-16T10:25:52;3.33;;;2.13;;
735;SDS011;352;48.626;9.238;2022-10-16T10:28:43;1.70;;;1.60;;
735;SDS011;352;48.626;9.238;2022-10-16T10:31:20;1.70;;;1.60;;
735;SDS011;352;48.626;9.238;2022-10-16T10:33:52;1.60;;;1.47;;
735;SDS011;352;48.626;9.238;2022-10-16T10:36:28;3.67;;;1.90;;
735;SDS011;352;48.626;9.238;2022-10-16T10:38:58;2.07;;;1.67;;
735;SDS011;352;48.626;9.238;2022-10-16T10:41:35;1.80;;;1.70;;
735;SDS011;352;48.626;9.238;2022-10-16T10:44:26;6.53;;;2.00;;
735;SDS011;352;48.626;9.238;2022-10-16T10:47:05;2.27;;;2.07;;
735;SDS011;352;48.626;9.238;2022-10-16T10:49:43;3.23;;;1.60;;
735;SDS011;352;48.626;9.238;2022-10-16T10:52:27;2.73;;;1.97;;
735;SDS011;352;48.626;9.238;2022-10-16T10:55:09;2.23;;;1.90;;
735;SDS011;352;48.626;9.238;2022-10-16T10:57:42;2.60;;;1.87;;
735;SDS011;352;48.626;9.238;2022-10-16T11:00:20;2.73;;;1.90;;
735;SDS011;352;48.626;9.238;2022-10-16T11:02:55;2.70;;;1.80;;
735;SDS011;352;48.626;9.238;2022-10-16T11:05:42;3.93;;;1.80;;
735;SDS011;352;48.626;9.238;2022-10-16T11:08:13;1.57;;;1.47;;
735;SDS011;352;48.626;9.238;2022-10-16T11:10:46;3.23;;;1.87;;
735;SDS011;352;48.626;9.238;2022-10-16T11:13:23;1.67;;;1.57;;
735;SDS011;352;48.626;9.238;2022-10-16T11:15:58;1.60;;;1.50;;
735;SDS011;352;48.626;9.238;2022-10-16T11:18:30;3.17;;;1.53;;
735;SDS011;352;48.626;9.238;2022-10-16T11:21:04;2.00;;;1.90;;
735;SDS011;352;48.626;9.238;2022-10-16T11:23:35;3.90;;;1.70;;
735;SDS011;352;48.626;9.238;2022-10-16T11:26:11;1.70;;;1.50;;
735;SDS011;352;48.626;9.238;2022-10-16T11:28:42;2.23;;;1.60;;
735;SDS011;352;48.626;9.238;2022-10-16T11:31:16;2.00;;;1.80;;
735;SDS011;352;48.626;9.238;2022-10-16T11:33:49;3.70;;;1.80;;
735;SDS011;352;48.626;9.238;2022-10-16T11:36:22;1.60;;;1.50;;
735;SDS011;352;48.626;9.238;2022-10-16T11:38:53;6.30;;;1.60;;
735;SDS011;352;48.626;9.238;2022-10-16T11:41:26;3.00;;;1.70;;
735;SDS011;352;48.626;9.238;2022-10-16T11:43:58;5.00;;;1.43;;
735;SDS011;352;48.626;9.238;2022-10-16T11:46:48;8.80;;;7.90;;
735;SDS011;352;48.626;9.238;2022-10-16T11:49:25;5.00;;;4.50;;
735;SDS011;352;48.626;9.238;2022-10-16T11:51:59;1.87;;;1.70;;
735;SDS011;352;48.626;9.238;2022-10-16T11:54:33;1.80;;;1.70;;
735;SDS011;352;48.626;9.238;2022-10-16T11:57:08;1.80;;;1.70;;
735;SDS011;352;48.626;9.238;2022-10-16T11:59:42;1.60;;;1.50;;
735;SDS011;352;48.626;9.238;2022-10-16T12:05:18;2.33;;;1.97;;
735;SDS011;352;48.626;9.238;2022-10-16T12:07:50;2.60;;;1.70;;
735;SDS011;352;48.626;9.238;2022-10-16T12:10:26;2.67;;;2.10;;
735;SDS011;352;48.626;9.238;2022-10-16T12:12:56;1.73;;;1.63;;
735;SDS011;352;48.626;9.238;2022-10-16T12:15:24;1.90;;;1.70;;
735;SDS011;352;48.626;9.238;2022-10-16T12:17:53;2.77;;;2.40;;
735;SDS011;352;48.626;9.238;2022-10-16T12:20:22;1.97;;;1.80;;
735;SDS011;352;48.626;9.238;2022-10-16T12:22:52;1.73;;;1.63;;
735;SDS011;352;48.626;9.238;2022-10-16T12:25:22;1.80;;;1.67;;
735;SDS011;352;48.626;9.238;2022-10-16T12:27:53;2.00;;;1.83;;
735;SDS011;352;48.626;9.238;2022-10-16T12:30:22;2.00;;;1.80;;
735;SDS011;352;48.626;9.238;2022-10-16T12:32:56;2.37;;;1.60;;
735;SDS011;352;48.626;9.238;2022-10-16T12:35:25;1.70;;;1.60;;
735;SDS011;352;48.626;9.238;2022-10-16T12:37:54;1.60;;;1.50;;
735;SDS011;352;48.626;9.238;2022-10-16T12:40:32;1.63;;;1.53;;
735;SDS011;352;48.626;9.238;2022-10-16T12:43:11;4.70;;;2.10;;
735;SDS011;352;48.626;9.238;2022-10-16T12:45:39;3.23;;;1.93;;
735;SDS011;352;48.626;9.238;2022-10-16T12:48:19;2.60;;;2.07;;
735;SDS011;352;48.626;9.238;2022-10-16T12:50:48;2.40;;;2.13;;
735;SDS011;352;48.626;9.238;2022-10-16T12:53:18;2.20;;;1.77;;
735;SDS011;352;48.626;9.238;2022-10-16T12:55:50;1.77;;;1.67;;
735;SDS011;352;48.626;9.238;2022-10-16T12:58:25;2.10;;;1.90;;
735;SDS011;352;48.626;9.238;2022-10-16T13:01:03;2.37;;;1.90;;
735;SDS011;352;48.626;9.238;2022-10-16T13:03:50;1.90;;;1.70;;
735;SDS011;352;48.626;9.238;2022-10-16T13:06:30;3.17;;;1.83;;
735;SDS011;352;48.626;9.238;2022-10-16T13:09:16;1.80;;;1.70;;
735;SDS011;352;48.626;9.238;2022-10-16T13:12:01;1.70;;;1.60;;
735;SDS011;352;48.626;9.238;2022-10-16T13:14:45;1.67;;;1.57;;
735;SDS011;352;48.626;9.238;2022-10-16T13:17:27;2.80;;;1.90;;
735;SDS011;352;48.626;9.238;2022-10-16T13:20:05;3.30;;;1.90;;
735;SDS011;352;48.626;9.238;2022-10-16T13:22:44;4.33;;;1.90;;
735;SDS011;352;48.626;9.238;2022-10-16T13:25:21;2.70;;;1.77;;
735;SDS011;352;48.626;9.238;2022-10-16T13:27:55;2.00;;;1.90;;
735;SDS011;352;48.626;9.238;2022-10-16T13:30:26;2.63;;;2.10;;
735;SDS011;352;48.626;9.238;2022-10-16T13:32:57;3.23;;;1.73;;
735;SDS011;352;48.626;9.238;2022-10-16T13:35:28;11.17;;;2.33;;
735;SDS011;352;48.626;9.238;2022-10-16T13:38:03;2.30;;;1.70;;
735;SDS011;352;48.626;9.238;2022-10-16T13:40:47;1.80;;;1.67;;
735;SDS011;352;48.626;9.238;2022-10-16T13:43:15;1.70;;;1.60;;
735;SDS011;352;48.626;9.238;2022-10-16T13:45:52;2.60;;;2.40;;
735;SDS011;352;48.626;9.238;2022-10-16T13:48:19;3.50;;;2.30;;
735;SDS011;352;48.626;9.238;2022-10-16T13:50:47;3.40;;;1.90;;
735;SDS011;352;48.626;9.238;2022-10-16T13:53:25;3.50;;;1.77;;
735;SDS011;352;48.626;9.238;2022-10-16T13:55:51;1.80;;;1.70;;
735;SDS011;352;48.626;9.238;2022-10-16T13:58:18;2.10;;;1.80;;
735;SDS011;352;48.626;9.238;2022-10-16T14:00:52;2.50;;;2.30;;
735;SDS011;352;48.626;9.238;2022-10-16T14:03:21;2.30;;;2.10;;
735;SDS011;352;48.626;9.238;2022-10-16T14:05:50;4.03;;;2.20;;
735;SDS011;352;48.626;9.238;2022-10-16T14:08:18;2.30;;;1.57;;
735;SDS011;352;48.626;9.238;2022-10-16T14:10:47;4.27;;;2.10;;
735;SDS011;352;48.626;9.238;2022-10-16T14:13:17;3.53;;;2.00;;
735;SDS011;352;48.626;9.238;2022-10-16T14:15:46;2.00;;;1.90;;
735;SDS011;352;48.626;9.238;2022-10-16T14:18:17;3.83;;;2.00;;
735;SDS011;352;48.626;9.238;2022-10-16T14:20:46;2.03;;;1.60;;
735;SDS011;352;48.626;9.238;2022-10-16T14:23:20;1.93;;;1.77;;
735;SDS011;352;48.626;9.238;2022-10-16T14:25:51;4.60;;;2.67;;
735;SDS011;352;48.626;9.238;2022-10-16T14:28:18;3.00;;;2.43;;
735;SDS011;352;48.626;9.238;2022-10-16T14:30:50;2.30;;;2.13;;
735;SDS011;352;48.626;9.238;2022-10-16T14:33:20;5.30;;;2.33;;
735;SDS011;352;48.626;9.238;2022-10-16T14:35:59;2.30;;;2.13;;
735;SDS011;352;48.626;9.238;2022-10-16T14:38:29;4.53;;;2.60;;
735;SDS011;352;48.626;9.238;2022-10-16T14:40:57;2.93;;;2.00;;
735;SDS011;352;48.626;9.238;2022-10-16T14:43:28;2.30;;;2.10;;
735;SDS011;352;48.626;9.238;2022-10-16T14:45:58;4.70;;;2.07;;
735;SDS011;352;48.626;9.238;2022-10-16T14:48:26;3.73;;;2.30;;
735;SDS011;352;48.626;9.238;2022-10-16T14:50:53;2.37;;;1.80;;
735;SDS011;352;48.626;9.238;2022-10-16T14:53:20;2.90;;;1.97;;
735;SDS011;352;48.626;9.238;2022-10-16T14:55:48;4.70;;;2.20;;
735;SDS011;352;48.626;9.238;2022-10-16T14:58:15;2.37;;;2.17;;
735;SDS011;352;48.626;9.238;2022-10-16T15:00:43;2.30;;;2.10;;
735;SDS011;352;48.626;9.238;2022-10-16T15:03:10;4.93;;;2.67;;
735;SDS011;352;48.626;9.238;2022-10-16T15:05:37;2.47;;;2.00;;
735;SDS011;352;48.626;9.238;2022-10-16T15:08:04;11.00;;;3.97;;
735;SDS011;352;48.626;9.238;2022-10-16T15:10:31;2.33;;;2.10;;
735;SDS011;352;48.626;9.238;2022-10-16T15:13:05;3.50;;;1.90;;
735;SDS011;352;48.626;9.238;2022-10-16T15:15:33;2.20;;;2.00;;
735;SDS011;352;48.626;9.238;2022-10-16T15:18:01;2.60;;;2.40;;
735;SDS011;352;48.626;9.238;2022-10-16T15:20:28;2.17;;;1.90;;
735;SDS011;352;48.626;9.238;2022-10-16T15:22:58;4.20;;;2.70;;
735;SDS011;352;48.626;9.238;2022-10-16T15:25:27;2.50;;;2.17;;
735;SDS011;352;48.626;9.238;2022-10-16T15:27:57;2.60;;;2.10;;
735;SDS011;352;48.626;9.238;2022-10-16T15:30:26;3.63;;;2.30;;
735;SDS011;352;48.626;9.238;2022-10-16T15:32:53;3.90;;;2.20;;
735;SDS011;352;48.626;9.238;2022-10-16T15:35:20;3.53;;;2.47;;
735;SDS011;352;48.626;9.238;2022-10-16T15:37:47;2.93;;;2.50;;
735;SDS011;352;48.626;9.238;2022-10-16T15:40:14;4.17;;;2.77;;
735;SDS011;352;48.626;9.238;2022-10-16T15:42:42;3.47;;;2.37;;
735;SDS011;352;48.626;9.238;2022-10-16T15:45:09;3.90;;;3.60;;
735;SDS011;352;48.626;9.238;2022-10-16T15:47:38;4.43;;;3.53;;
735;SDS011;352;48.626;9.238;2022-10-16T15:50:06;10.07;;;4.10;;
735;SDS011;352;48.626;9.238;2022-10-16T15:52:36;4.33;;;3.93;;
735;SDS011;352;48.626;9.238;2022-10-16T15:55:04;4.60;;;3.60;;
735;SDS011;352;48.626;9.238;2022-10-16T15:57:31;7.23;;;2.90;;
735;SDS011;352;48.626;9.238;2022-10-16T15:59:58;10.30;;;2.83;;
735;SDS011;352;48.626;9.238;2022-10-16T16:02:24;8.73;;;4.03;;
735;SDS011;352;48.626;9.238;2022-10-16T16:04:52;3.60;;;2.70;;
735;SDS011;352;48.626;9.238;2022-10-16T16:07:19;4.93;;;4.07;;
735;SDS011;352;48.626;9.238;2022-10-16T16:09:46;5.60;;;4.10;;
735;SDS011;352;48.626;9.238;2022-10-16T16:12:12;4.00;;;3.70;;
735;SDS011;352;48.626;9.238;2022-10-16T16:14:39;5.83;;;4.80;;
735;SDS011;352;48.626;9.238;2022-10-16T16:17:06;6.30;;;5.10;;
735;SDS011;352;48.626;9.238;2022-10-16T16:19:33;4.40;;;4.00;;
735;SDS011;352;48.626;9.238;2022-10-16T16:22:01;4.30;;;3.90;;
735;SDS011;352;48.626;9.238;2022-10-16T16:24:27;5.00;;;3.27;;
735;SDS011;352;48.626;9.238;2022-10-16T16:26:54;4.90;;;3.17;;
735;SDS011;352;48.626;9.238;2022-10-16T16:29:21;5.83;;;3.33;;
735;SDS011;352;48.626;9.238;2022-10-16T16:31:48;3.30;;;3.10;;
735;SDS011;352;48.626;9.238;2022-10-16T16:34:14;12.13;;;4.63;;
735;SDS011;352;48.626;9.238;2022-10-16T16:36:41;4.40;;;4.00;;
735;SDS011;352;48.626;9.238;2022-10-16T16:39:10;7.13;;;6.20;;
735;SDS011;352;48.626;9.238;2022-10-16T16:41:36;9.20;;;5.90;;
735;SDS011;352;48.626;9.238;2022-10-16T16:44:04;7.50;;;5.57;;
735;SDS011;352;48.626;9.238;2022-10-16T16:46:33;13.00;;;4.97;;
735;SDS011;352;48.626;9.238;2022-10-16T16:49:00;4.70;;;4.30;;
735;SDS011;352;48.626;9.238;2022-10-16T16:51:27;5.63;;;4.00;;
735;SDS011;352;48.626;9.238;2022-10-16T16:53:54;5.20;;;3.33;;
735;SDS011;352;48.626;9.238;2022-10-16T16:56:23;4.43;;;4.03;;